CheckWX is a tool to help pilots better visualize weather data.  It is not intended as a substitute for an official pre-flight weather briefing.

19:40:26 UTC

VTCN METAR
Nan Airport
Thailand
Current

9 hours ago

VTCN 121100Z 03002KT CAVOK 26/23 Q1009 NOSIG
Observed
Nov-12 @ 11:00 UTC
Wind
  • 030° at 2 KTS
Visibility
10,000+ meters
Flight Rules
VFR
Cloud Levels
  • Clear skies
Temperature
26°C / 79°F
Dewpoint
23°C / 73°F
Humidity
84%
Altimeter
29.79" Hg
Pressure
1008.92 hPa
Previous

10 hours ago

VTCN 121000Z VRB01KT CAVOK 30/21 Q1009 NOSIG
Observed
Nov-12 @ 10:00 UTC
Wind
  • Variable at 1 KTS
Visibility
10,000+ meters
Flight Rules
VFR
Cloud Levels
  • Clear skies
Temperature
30°C / 86°F
Dewpoint
21°C / 70°F
Heat Index
33°C / 91°F
Humidity
59%
Altimeter
29.79" Hg
Pressure
1008.92 hPa
Previous

11 hours ago

VTCN 120900Z 03005KT CAVOK 32/19 Q1009 NOSIG
Observed
Nov-12 @ 09:00 UTC
Wind
  • 030° at 5 KTS
Visibility
10,000+ meters
Flight Rules
VFR
Cloud Levels
  • Clear skies
Temperature
32°C / 90°F
Dewpoint
19°C / 66°F
Heat Index
34°C / 93°F
Humidity
46%
Altimeter
29.79" Hg
Pressure
1008.92 hPa